createdAt,value
2023-01-12T00:02:34.452Z,100171.88
2023-01-12T00:07:37.580Z,100176.28
2023-01-12T00:12:41.685Z,100177.97
2023-01-12T00:17:44.470Z,100175.28
2023-01-12T00:22:50.134Z,100184.84
2023-01-12T00:27:54.282Z,100193.13
2023-01-12T00:32:58.518Z,100204.91
2023-01-12T00:38:01.321Z,100212.47
2023-01-12T00:43:23.340Z,100200.88
2023-01-12T00:48:26.515Z,100199.03
2023-01-12T00:53:29.297Z,100199.03
2023-01-12T00:58:33.443Z,100206.25
2023-01-12T01:03:36.465Z,100198.06
2023-01-12T01:08:39.222Z,100208.53
2023-01-12T01:13:43.964Z,100211.22
2023-01-12T01:18:46.747Z,100211.34
2023-01-12T01:23:49.502Z,100227.84
2023-01-12T01:28:53.584Z,100216.72
2023-01-12T01:33:56.350Z,100183.50
2023-01-12T01:38:59.154Z,100172.75
2023-01-12T01:44:04.173Z,100159.44
2023-01-12T01:49:23.663Z,100141.97
2023-01-12T01:54:26.434Z,100140.94
2023-01-12T01:59:31.852Z,100133.00
2023-01-12T02:04:35.981Z,100146.72
2023-01-12T02:09:38.768Z,100128.81
2023-01-12T02:15:00.589Z,100115.88
2023-01-12T02:20:52.462Z,100104.09
2023-01-12T02:26:20.294Z,100098.97
2023-01-12T02:31:44.983Z,100085.09
2023-01-12T02:36:51.898Z,100083.28
2023-01-12T02:42:16.105Z,100085.19
2023-01-12T02:47:24.084Z,100079.97
2023-01-12T02:52:26.853Z,100079.03
2023-01-12T02:57:29.649Z,100073.03
2023-01-12T03:02:33.764Z,100086.88
2023-01-12T03:07:43.218Z,100067.50
2023-01-12T03:12:46.100Z,100065.56
2023-01-12T03:17:51.424Z,100073.13
2023-01-12T03:22:56.724Z,100058.50
2023-01-12T03:27:59.521Z,100057.19
2023-01-12T03:33:03.694Z,100058.78
2023-01-12T03:38:08.829Z,100047.09
2023-01-12T03:43:14.020Z,100053.81
2023-01-12T03:48:19.953Z,100044.28
2023-01-12T03:53:22.891Z,100036.72
2023-01-12T03:58:25.660Z,100055.75
2023-01-12T04:03:29.820Z,100030.97
2023-01-12T04:08:32.780Z,100023.06
2023-01-12T04:13:35.659Z,100008.09
2023-01-12T04:18:39.776Z,100009.19
2023-01-12T04:23:42.561Z,100009.41
2023-01-12T04:28:45.350Z,100005.16
2023-01-12T04:33:49.403Z,99996.75
2023-01-12T04:38:52.256Z,99994.06
2023-01-12T04:43:55.578Z,99992.75
2023-01-12T04:48:59.959Z,99990.22
2023-01-12T04:54:02.719Z,99995.78
2023-01-12T04:59:07.311Z,99993.38
2023-01-12T05:04:11.499Z,99995.44
2023-01-12T05:09:31.706Z,99995.78
2023-01-12T05:14:34.593Z,99995.31
2023-01-12T05:19:38.719Z,99994.56
2023-01-12T05:24:41.452Z,99985.94
2023-01-12T05:29:44.182Z,99984.47
2023-01-12T05:34:48.324Z,99990.06
2023-01-12T05:39:51.103Z,99983.13
2023-01-12T05:44:53.905Z,99981.56
2023-01-12T05:49:58.041Z,99973.97
2023-01-12T05:55:00.807Z,99980.31
2023-01-12T06:00:03.914Z,99966.28
2023-01-12T06:05:16.503Z,99962.84
2023-01-12T06:10:19.619Z,99949.72
2023-01-12T06:15:22.382Z,99944.59
2023-01-12T06:20:26.527Z,99944.81
2023-01-12T06:25:30.253Z,99954.69
2023-01-12T06:30:33.115Z,99941.44
2023-01-12T06:35:37.215Z,99946.19
2023-01-12T06:40:40.053Z,99938.16
2023-01-12T06:45:42.811Z,99934.75
2023-01-12T06:50:46.908Z,99938.34
2023-01-12T06:55:50.322Z,99937.63
2023-01-12T07:00:53.125Z,99921.31
2023-01-12T07:05:59.080Z,99926.19
2023-01-12T07:11:03.512Z,99917.56
2023-01-12T07:16:07.252Z,99915.88
2023-01-12T07:21:13.404Z,99918.63
2023-01-12T07:26:16.226Z,99922.28
2023-01-12T07:31:19.443Z,99910.72
2023-01-12T07:36:25.346Z,99910.00
2023-01-12T07:41:45.777Z,99911.94
2023-01-12T07:46:49.080Z,99917.44
2023-01-12T07:51:54.845Z,99920.19
2023-01-12T07:56:57.883Z,99907.78
2023-01-12T08:02:00.645Z,99902.09
2023-01-12T08:07:04.830Z,99897.22
2023-01-12T08:12:07.718Z,99891.84
2023-01-12T08:17:14.090Z,99877.50
2023-01-12T08:22:21.019Z,99871.28
2023-01-12T08:27:25.013Z,99864.50
2023-01-12T08:32:28.095Z,99869.34
2023-01-12T08:37:32.251Z,99870.56
2023-01-12T08:42:35.115Z,99865.44
2023-01-12T08:47:40.827Z,99869.72
2023-01-12T08:52:45.437Z,99869.59
2023-01-12T08:57:48.217Z,99878.97
2023-01-12T09:02:51.004Z,99886.56
2023-01-12T09:07:55.176Z,99879.22
2023-01-12T09:12:58.115Z,99860.91
2023-01-12T09:18:01.031Z,99858.81
2023-01-12T09:23:05.657Z,99857.09
2023-01-12T09:28:08.505Z,99846.91
2023-01-12T09:33:12.041Z,99845.84
2023-01-12T09:38:17.398Z,99847.72
2023-01-12T09:43:37.513Z,99825.66
2023-01-12T09:48:40.340Z,99814.59
2023-01-12T09:53:46.746Z,99798.94
2023-01-12T09:59:09.061Z,99788.81
2023-01-12T10:04:11.835Z,99783.31
2023-01-12T10:09:17.567Z,99764.59
2023-01-12T10:14:39.765Z,99769.81
2023-01-12T10:19:47.537Z,99784.81
2023-01-12T10:24:55.011Z,99790.16
2023-01-12T10:29:58.574Z,99774.09
2023-01-12T10:35:01.526Z,99760.81
2023-01-12T10:40:09.405Z,99751.06
2023-01-12T10:45:17.569Z,99755.56
2023-01-12T10:50:26.295Z,99758.38
2023-01-12T10:55:32.812Z,99750.63
2023-01-12T11:00:36.259Z,99757.78
2023-01-12T11:05:39.381Z,99752.44
2023-01-12T11:10:43.608Z,99748.06
2023-01-12T11:15:55.386Z,99736.59
2023-01-12T11:21:00.310Z,99737.44
2023-01-12T11:26:05.586Z,99726.88
2023-01-12T11:31:09.684Z,99718.00
2023-01-12T11:36:15.672Z,99724.31
2023-01-12T11:41:23.723Z,99705.59
2023-01-12T11:46:29.138Z,99708.41
2023-01-12T11:51:31.940Z,99702.06
2023-01-12T11:57:01.983Z,99697.56
2023-01-12T12:02:08.133Z,99697.81
2023-01-12T12:07:22.002Z,99698.66
2023-01-12T12:12:29.093Z,99687.34
2023-01-12T12:17:37.496Z,99695.13
2023-01-12T12:22:51.527Z,99694.03
2023-01-12T12:28:04.207Z,99699.50
2023-01-12T12:33:10.373Z,99696.34
2023-01-12T12:38:21.225Z,99690.00
2023-01-12T12:43:47.798Z,99685.41
2023-01-12T12:48:53.747Z,99679.22
2023-01-12T12:53:56.542Z,99673.00
2023-01-12T12:59:01.429Z,99680.91
2023-01-12T13:04:04.978Z,99681.75
2023-01-12T13:09:38.688Z,99678.22
2023-01-12T13:14:43.150Z,99675.69
2023-01-12T13:19:46.856Z,99675.44
2023-01-12T13:24:49.755Z,99670.06
2023-01-12T13:29:53.952Z,99667.00
2023-01-12T13:34:56.753Z,99667.97
2023-01-12T13:40:03.225Z,99666.16
2023-01-12T13:45:10.537Z,99669.44
2023-01-12T13:50:17.077Z,99659.09
2023-01-12T13:55:20.803Z,99658.09
2023-01-12T14:00:25.667Z,99672.69
2023-01-12T14:05:46.322Z,99662.44
2023-01-12T14:10:51.724Z,99663.16
2023-01-12T14:16:19.557Z,99659.97
2023-01-12T14:21:24.625Z,99657.25
2023-01-12T14:26:27.390Z,99657.03
2023-01-12T14:31:34.825Z,99649.03
2023-01-12T14:36:42.474Z,99652.22
2023-01-12T14:42:04.359Z,99642.72
2023-01-12T14:47:08.605Z,99636.91
2023-01-12T14:52:26.054Z,99635.09
2023-01-12T14:57:31.145Z,99626.53
2023-01-12T15:02:36.563Z,99632.66
2023-01-12T15:07:40.115Z,99632.22
2023-01-12T15:12:47.253Z,99639.59
2023-01-12T15:18:09.472Z,99640.59
2023-01-12T15:23:29.560Z,99640.78
2023-01-12T15:28:32.378Z,99642.38
2023-01-12T15:33:36.607Z,99642.66
2023-01-12T15:38:39.374Z,99650.97
2023-01-12T15:43:42.200Z,99659.06
2023-01-12T15:48:46.309Z,99660.19
2023-01-12T15:53:49.095Z,99664.16
2023-01-12T15:58:51.947Z,99677.59
2023-01-12T16:04:24.970Z,99671.50
2023-01-12T16:09:18.869Z,99668.25
2023-01-12T16:14:21.783Z,99667.81
2023-01-12T16:19:26.318Z,99668.22
2023-01-12T16:24:32.267Z,99669.41
2023-01-12T16:29:35.215Z,99663.16
2023-01-12T16:34:39.492Z,99669.91
2023-01-12T16:39:42.480Z,99665.13
2023-01-12T16:44:45.302Z,99674.16
2023-01-12T16:49:50.407Z,99677.25
2023-01-12T16:54:53.167Z,99684.91
2023-01-12T16:59:55.935Z,99672.28
2023-01-12T17:05:00.091Z,99664.63
2023-01-12T17:10:03.036Z,99672.38
2023-01-12T17:15:07.557Z,99664.19
2023-01-12T17:20:13.317Z,99673.53
2023-01-12T17:25:16.880Z,99664.47
2023-01-12T17:30:22.205Z,99658.09
2023-01-12T17:35:27.282Z,99657.81
2023-01-12T17:40:30.110Z,99652.69
2023-01-12T17:45:32.884Z,99655.53
2023-01-12T17:50:37.028Z,99647.94
2023-01-12T17:55:48.023Z,99650.63
2023-01-12T18:00:52.109Z,99630.66
2023-01-12T18:06:04.417Z,99637.16
2023-01-12T18:11:09.183Z,99631.47
2023-01-12T18:16:13.072Z,99622.88
2023-01-12T18:21:18.687Z,99612.53
2023-01-12T18:26:22.654Z,99608.16
2023-01-12T18:31:26.245Z,99601.66
2023-01-12T18:36:30.476Z,99591.34
2023-01-12T18:41:50.632Z,99595.31
2023-01-12T18:47:11.101Z,99577.72
2023-01-12T18:52:32.901Z,99581.81
2023-01-12T18:57:35.802Z,99581.81
2023-01-12T19:02:38.902Z,99580.66
2023-01-12T19:08:02.302Z,99584.50
2023-01-12T19:13:22.665Z,99596.97
2023-01-12T19:18:25.479Z,99592.69
2023-01-12T19:23:47.009Z,99599.94
2023-01-12T19:28:49.933Z,99597.97
2023-01-12T19:33:52.923Z,99591.00
2023-01-12T19:38:59.968Z,99577.56
2023-01-12T19:44:05.314Z,99581.94
2023-01-12T19:49:08.494Z,99583.63
2023-01-12T19:54:12.675Z,99575.56
2023-01-12T19:59:15.500Z,99577.56
2023-01-12T20:04:18.293Z,99566.81
2023-01-12T20:09:22.427Z,99560.56
2023-01-12T20:14:25.169Z,99559.03
2023-01-12T20:19:27.992Z,99560.41
2023-01-12T20:24:32.283Z,99554.03
2023-01-12T20:29:35.132Z,99544.44
2023-01-12T20:34:38.302Z,99530.97
2023-01-12T20:39:42.525Z,99534.81
2023-01-12T20:44:45.536Z,99539.06
2023-01-12T20:49:49.030Z,99537.50
2023-01-12T20:54:53.348Z,99544.59
2023-01-12T20:59:56.148Z,99542.91
2023-01-12T21:04:59.296Z,99541.38
2023-01-12T21:10:03.611Z,99536.69
2023-01-12T21:15:07.479Z,99537.81
2023-01-12T21:20:11.652Z,99525.38
2023-01-12T21:25:15.917Z,99536.81
2023-01-12T21:30:19.099Z,99536.81
2023-01-12T21:35:21.816Z,99541.50
2023-01-12T21:40:26.157Z,99534.13
2023-01-12T21:45:28.920Z,99526.34
2023-01-12T21:50:32.557Z,99531.03
2023-01-12T21:55:36.709Z,99534.56
2023-01-12T22:00:39.732Z,99531.03
2023-01-12T22:05:43.636Z,99524.81
2023-01-12T22:10:47.852Z,99518.75
2023-01-12T22:15:52.177Z,99515.88
2023-01-12T22:20:56.116Z,99513.50
2023-01-12T22:26:03.365Z,99501.75
2023-01-12T22:31:10.651Z,99516.19
2023-01-12T22:36:13.418Z,99516.34
2023-01-12T22:41:19.400Z,99511.94
2023-01-12T22:46:22.995Z,99514.78
2023-01-12T22:51:26.565Z,99512.25
2023-01-12T22:56:30.798Z,99505.75
2023-01-12T23:01:33.574Z,99502.22
2023-01-12T23:06:37.317Z,99504.22
2023-01-12T23:11:41.783Z,99497.63
2023-01-12T23:16:44.582Z,99496.84
2023-01-12T23:21:48.697Z,99485.41
2023-01-12T23:26:52.862Z,99479.34
2023-01-12T23:31:55.723Z,99477.81
2023-01-12T23:36:58.560Z,99473.56
2023-01-12T23:42:03.489Z,99470.84
2023-01-12T23:47:06.638Z,99459.25
2023-01-12T23:52:09.463Z,99455.56
2023-01-12T23:57:13.691Z,99455.03
